Latest METARs, TAFs and NOTAMs for TTPP


---------------------------------------------------------------------------
	(OBSERVATIONS)
TTPP 241000Z 00000KT 9999 FEW016 22/21 Q1013 NOSIG=
TTPP 240900Z 00000KT 9999 FEW016 22/21 Q1013 NOSIG=
TTPP 240800Z 00000KT 9999 FEW016 22/21 Q1012 NOSIG=
---------------------------------------------------------------------------
	(TERMINAL AREA FORECAST)
TTPP 240400Z 2406/2506 00000KT 9999 FEW016
    TEMPO 2407/2411 SHRA SCT014 SCT038
    BECMG 2412/2414 11010KT SCT018 SCT040
    PROB40 TEMPO 2415/2419 6000 SHRA=
---------------------------------------------------------------------------
	(NOTAMS)


TTPP A0231/17 INSTRUMENT APPROACH PROCEDURE "NDB RWY10" NOT AVBL.
    24 FEB 23:50 UNTIL 24 MAY 23:50 ESTIMATED

TTPP A0232/17 INSTRUMENT APPROACH PROCEDURE "NDB/ILS RWY10" NOT
    AVBL. 24 FEB 23:50 2017 UNTIL 24 MAY 23:50 2017 ESTIMATED.
    CREATED: 24 FEB 23:50 2017

TTPP A0330/17 ALL AIRCRAFT TO BE TOWED IN AND TOWED OUT OF GATES
    1 AND 2 ON THE SOUTH APRON. 17 MAR 00:10 2017 UNTIL 16 JUN
    22:00 2017. CREATED: 17 MAR 00:10 2017

TTPP A0349/17 MODEL ACFT DISPLAY AT FREDERICK SETTLEMENT WITHIN
    A RADIUS OF 1KM CENTRED ON 103538N0612337W. CTN ADV. SFC
    - 400FT, SR-SS, 20 MAR 16:10 2017 UNTIL 20 JUN 22:00 2017
    ESTIMATED. CREATED: 20 MAR 16:15 2017

TTPP A0377/17 TWY BRAVO CLOSED 150M WEST OF "B1" TO "B3" DUE
    TO PAVEMENT REHABILITATION WORKS. MEN AND EQUIPMENT IN THE
    AREA. 23 MAR 11:00 2017 UNTIL 25 MAR 23:00 2017. CREATED:
    22 MAR 12:43 2017

TTPP A0380/17 WIP AT WASA CARONI WATER TREATMENT PLANT 1000M
    SOUTH OF RWY 10/28 CENTRE LINE. CRANE TO BE ERECTED NO MORE
    THAN 30M IN HEIGHT. 22 MAR 14:00 2017 UNTIL 24 MAR 22:00
    2017. CREATED: 22 MAR 13:40 2017

TTPP A0382/17 ILS 'IPOS' 109.70MHZ CH34X RWY 10 U/S DUE TO PAVEMENT
    REHABILITATION WORKS. 1100-2300, 23 MAR 11:00 2017 UNTIL
    25 MAR 23:00 2017. CREATED: 22 MAR 17:42 2017

TTPP A0392/17 NORTHERN PAVEMENT CLSD FROM A1 TO 150M WEST OF
    A1 DUE MAINTENANCE WORKS. MEN AND EQPT IN THE AREA. 23 MAR
    23:00 2017 UNTIL 22 APR 23:00 2017. CREATED: 23 MAR 23:12
    2017

TTPP F0016/07 [DEFENSE ENERGY SUPPORT CENTER ADVISORY] FUEL AVAILABILITY
    NOT AVAILABLE: CONTRACTOR PLACED ON QUALITY HOLD DUE TO NONCOMPLIANCE
    OF SAMPLE SUBMISSION. 12 JUL 20:18 2020 UNTIL 01 AUG 21:18
    2020

---------------------------------------------------------------------------